Time;durP1;ratioP1;P1;durP2;ratioP2;P2;SDS_P1;SDS_P2;PMS_P1;PMS_P2;Temp;Humidity;BMP_temperature;BMP_pressure;BME280_temperature;BME280_humidity;BME280_pressure;Samples;Min_cycle;Max_cycle;Signal;HPM_P1;HPM_P2
2023/08/22 00:00:07;;;;;;;;;;;;;;;16.07;100.00;101930.88;5053134;28;19920;-52
2023/08/22 00:02:33;;;;;;;;;;;;;;;16.04;100.00;101915.22;5052531;28;19958;-51
2023/08/22 00:04:58;;;;;;;;;;;;;;;16.02;100.00;101911.69;5053367;28;19913;-50
2023/08/22 00:07:23;;;;;;;;;;;;;;;16.01;100.00;101910.81;5053063;28;19912;-49
2023/08/22 00:09:48;;;;;;;;;;;;;;;16.02;100.00;101917.75;5052643;28;19919;-52
2023/08/22 00:12:13;;;;;;;;;;;;;;;16.00;100.00;101915.94;5052918;28;19920;-51
2023/08/22 00:14:39;;;;;;;;;;;;;;;15.96;100.00;101910.69;5053110;28;19919;-51
2023/08/22 00:17:04;;;;;;;;;;;;;;;15.94;100.00;101908.91;5052565;28;19913;-51
2023/08/22 00:19:29;;;;;;;;;;;;;;;15.95;100.00;101914.13;5052786;28;20304;-51
2023/08/22 00:21:55;;;;;;;;;;;;;;;15.96;100.00;101917.63;5053061;28;20021;-50
2023/08/22 00:24:20;;;;;;;;;;;;;;;15.93;100.00;101914.94;5052543;28;19916;-51
2023/08/22 00:26:45;;;;;;;;;;;;;;;15.92;100.00;101910.56;5052819;28;19917;-51
2023/08/22 00:29:10;;;;;;;;;;;;;;;15.90;100.00;101909.66;5052197;28;19916;-50
2023/08/22 00:31:35;;;;;;;;;;;;;;;15.88;100.00;101916.53;5052881;28;20352;-50
2023/08/22 00:34:02;;;;;;;;;;;;;;;15.87;100.00;101914.78;5053057;28;19912;-50
2023/08/22 00:36:27;;;;;;;;;;;;;;;15.85;100.00;101908.66;5051966;28;19952;-51
2023/08/22 00:38:53;;;;;;;;;;;;;;;15.88;100.00;101913.94;5053953;28;19961;-51
2023/08/22 00:41:18;;;;;;;;;;;;;;;15.88;100.00;101898.34;5056736;28;19913;-51
2023/08/22 00:43:43;;;;;;;;;;;;;;;15.88;100.00;101903.53;5056175;28;19913;-51
2023/08/22 00:46:08;;;;;;;;;;;;;;;15.90;100.00;101899.25;5057130;28;19913;-50
2023/08/22 00:48:34;;;;;;;;;;;;;;;15.87;100.00;101899.16;5056721;28;19917;-51
2023/08/22 00:50:59;;;;;;;;;;;;;;;15.84;100.00;101901.72;5056193;28;19920;-51
2023/08/22 00:53:25;;;;;;;;;;;;;;;15.79;100.00;101898.97;5056488;28;19913;-50
2023/08/22 00:55:51;;;;;;;;;;;;;;;15.76;100.00;101891.09;5056788;28;19916;-50
2023/08/22 00:58:16;;;;;;;;;;;;;;;15.75;100.00;101890.22;5055527;28;19916;-51
2023/08/22 01:00:41;;;;;;;;;;;;;;;15.74;100.00;101885.84;5056818;28;19913;-51
2023/08/22 01:03:06;;;;;;;;;;;;;;;15.73;100.00;101888.44;5056719;28;19912;-49
2023/08/22 01:05:37;;;;;;;;;;;;;;;15.71;100.00;101891.00;5055531;28;19913;-51
2023/08/22 01:08:10;;;;;;;;;;;;;;;15.68;100.00;101890.91;5056544;28;20253;-51
2023/08/22 01:10:38;;;;;;;;;;;;;;;15.62;100.00;101880.34;5056439;28;19970;-51
2023/08/22 01:13:07;;;;;;;;;;;;;;;15.58;100.00;101883.72;5055604;28;19919;-50
2023/08/22 01:15:34;;;;;;;;;;;;;;;15.53;100.00;101885.31;5056239;28;19913;-51
2023/08/22 01:18:03;;;;;;;;;;;;;;;15.46;100.00;101886.88;5056459;28;20017;-50
2023/08/22 01:20:28;;;;;;;;;;;;;;;15.41;100.00;101897.13;5055397;28;19948;-50
2023/08/22 01:22:54;;;;;;;;;;;;;;;15.36;100.00;101887.47;5056365;28;19998;-49
2023/08/22 01:25:19;;;;;;;;;;;;;;;15.33;100.00;101892.59;5055182;28;20257;-51
2023/08/22 01:27:57;;;;;;;;;;;;;;;15.31;100.00;101889.94;5055985;28;19916;-51
2023/08/22 01:30:32;;;;;;;;;;;;;;;15.30;100.00;101883.00;5055822;28;19912;-51
2023/08/22 01:32:59;;;;;;;;;;;;;;;15.28;100.00;101882.94;5055485;28;19957;-50
2023/08/22 01:35:26;;;;;;;;;;;;;;;15.26;100.00;101868.16;5055759;28;19913;-49
2023/08/22 01:37:53;;;;;;;;;;;;;;;15.26;100.00;101873.34;5055999;28;19917;-50
2023/08/22 01:40:18;;;;;;;;;;;;;;;15.26;100.00;101881.13;5054834;28;20279;-51
2023/08/22 01:42:43;;;;;;;;;;;;;;;15.23;100.00;101876.75;5056066;28;19995;-50
2023/08/22 01:45:08;;;;;;;;;;;;;;;15.22;100.00;101874.09;5055963;28;19913;-51
2023/08/22 01:47:35;;;;;;;;;;;;;;;15.21;100.00;101878.44;5054721;28;19913;-50
2023/08/22 01:50:01;;;;;;;;;;;;;;;15.20;100.00;101876.66;5055732;28;20287;-51
2023/08/22 01:52:26;;;;;;;;;;;;;;;15.22;100.00;101874.09;5055311;28;20348;-51
2023/08/22 01:54:51;;;;;;;;;;;;;;;15.21;100.00;101873.25;5055129;28;19962;-50
2023/08/22 01:57:16;;;;;;;;;;;;;;;15.22;100.00;101874.09;5055429;28;19913;-50
2023/08/22 01:59:42;;;;;;;;;;;;;;;15.23;100.00;101862.88;5055757;28;19913;-51
2023/08/22 02:02:07;;;;;;;;;;;;;;;15.25;100.00;101869.03;5054740;28;20318;-48
2023/08/22 02:04:33;;;;;;;;;;;;;;;15.28;100.00;101864.75;5055215;28;19919;-51
2023/08/22 02:06:58;;;;;;;;;;;;;;;15.31;100.00;101859.66;5055350;28;20310;-50
2023/08/22 02:09:23;;;;;;;;;;;;;;;15.35;100.00;101860.63;5054335;28;19913;-51
2023/08/22 02:11:48;;;;;;;;;;;;;;;15.38;100.00;101865.88;5055281;28;19913;-47
2023/08/22 02:14:13;;;;;;;;;;;;;;;15.39;100.00;101865.06;5055000;28;20019;-51
2023/08/22 02:16:39;;;;;;;;;;;;;;;15.38;100.00;101871.09;5054648;28;19982;-48
2023/08/22 02:19:04;;;;;;;;;;;;;;;15.38;100.00;101859.81;5055378;28;19913;-50
2023/08/22 02:21:30;;;;;;;;;;;;;;;15.38;100.00;101855.50;5054664;28;19944;-49
2023/08/22 02:23:56;;;;;;;;;;;;;;;15.39;100.00;101857.25;5054683;28;19963;-51
2023/08/22 02:26:21;;;;;;;;;;;;;;;15.38;100.00;101865.03;5054735;28;20011;-50
2023/08/22 02:28:46;;;;;;;;;;;;;;;15.37;100.00;101855.47;5054476;28;20015;-50
2023/08/22 02:31:11;;;;;;;;;;;;;;;15.34;100.00;101857.97;5054889;28;20334;-47
2023/08/22 02:33:36;;;;;;;;;;;;;;;15.31;100.00;101853.56;5054926;28;19912;-51
2023/08/22 02:36:02;;;;;;;;;;;;;;;15.29;100.00;101850.94;5054189;28;20352;-50
2023/08/22 02:38:27;;;;;;;;;;;;;;;15.27;100.00;101851.75;5054436;28;19916;-51
2023/08/22 02:40:52;;;;;;;;;;;;;;;15.24;100.00;101857.72;5055258;28;20050;-51
2023/08/22 02:43:17;;;;;;;;;;;;;;;15.22;100.00;101853.34;5053850;28;20256;-51
2023/08/22 02:45:46;;;;;;;;;;;;;;;15.21;100.00;101851.56;5055124;28;19919;-51
2023/08/22 02:48:11;;;;;;;;;;;;;;;15.21;100.00;101851.56;5054945;28;19916;-48
2023/08/22 02:50:36;;;;;;;;;;;;;;;15.21;100.00;101855.06;5053904;28;20426;-50
2023/08/22 02:53:02;;;;;;;;;;;;;;;15.22;100.00;101850.72;5054564;28;20046;-50
2023/08/22 02:55:27;;;;;;;;;;;;;;;15.23;100.00;101855.09;5054839;28;19913;-49
2023/08/22 02:57:53;;;;;;;;;;;;;;;15.24;100.00;101856.88;5053683;28;19913;-50
2023/08/22 03:00:18;;;;;;;;;;;;;;;15.25;100.00;101843.91;5054153;28;19920;-51
2023/08/22 03:02:43;;;;;;;;;;;;;;;15.25;100.00;101848.25;5053946;28;20298;-51
2023/08/22 03:05:11;;;;;;;;;;;;;;;15.23;100.00;101844.72;5053611;28;20038;-51
2023/08/22 03:07:36;;;;;;;;;;;;;;;15.22;100.00;101853.34;5054233;28;19916;-50
2023/08/22 03:10:02;;;;;;;;;;;;;;;15.19;100.00;101856.72;5054094;28;20284;-50
2023/08/22 03:12:28;;;;;;;;;;;;;;;15.16;100.00;101861.84;5052964;28;19913;-52
2023/08/22 03:14:53;;;;;;;;;;;;;;;15.16;100.00;101854.06;5054258;28;19921;-51
2023/08/22 03:17:18;;;;;;;;;;;;;;;15.16;100.00;101848.88;5053885;28;20276;-51
2023/08/22 03:19:43;;;;;;;;;;;;;;;15.13;100.00;101847.06;5053268;28;20011;-51
2023/08/22 03:22:08;;;;;;;;;;;;;;;15.11;100.00;101846.13;5053931;28;20367;-51
2023/08/22 03:24:34;;;;;;;;;;;;;;;15.11;100.00;101846.13;5053805;28;19916;-53
2023/08/22 03:26:59;;;;;;;;;;;;;;;15.10;100.00;101848.69;5053222;28;19916;-51
2023/08/22 03:29:24;;;;;;;;;;;;;;;15.06;100.00;101847.72;5053777;28;19912;-50
2023/08/22 03:31:49;;;;;;;;;;;;;;;15.03;100.00;101846.75;5053820;28;19912;-49
2023/08/22 03:34:15;;;;;;;;;;;;;;;14.98;100.00;101854.44;5052968;28;19939;-51
2023/08/22 03:36:40;;;;;;;;;;;;;;;14.94;100.00;101847.41;5053615;28;19913;-51
2023/08/22 03:39:05;;;;;;;;;;;;;;;14.92;100.00;101849.06;5052920;28;19912;-50
2023/08/22 03:41:30;;;;;;;;;;;;;;;14.86;100.00;101854.97;5053575;28;20118;-51
2023/08/22 03:43:55;;;;;;;;;;;;;;;14.81;100.00;101841.00;5053736;28;19919;-51
2023/08/22 03:46:21;;;;;;;;;;;;;;;14.77;100.00;101834.84;5052684;28;19916;-50
2023/08/22 03:48:46;;;;;;;;;;;;;;;14.76;100.00;101846.03;5053463;28;19995;-51
2023/08/22 03:51:11;;;;;;;;;;;;;;;14.76;100.00;101848.63;5053234;28;19916;-46
2023/08/22 03:53:36;;;;;;;;;;;;;;;14.72;100.00;101845.91;5052919;28;19919;-51
2023/08/22 03:56:02;;;;;;;;;;;;;;;14.71;100.00;101845.03;5053413;28;19912;-51
2023/08/22 03:58:27;;;;;;;;;;;;;;;14.67;100.00;101837.09;5053072;28;19912;-51
2023/08/22 04:01:00;;;;;;;;;;;;;;;14.62;100.00;101845.59;5052759;28;19920;-50
2023/08/22 04:03:25;;;;;;;;;;;;;;;14.58;100.00;101842.91;5053171;28;20367;-50
2023/08/22 04:05:51;;;;;;;;;;;;;;;14.53;100.00;101853.13;5053286;28;19916;-50
2023/08/22 04:08:16;;;;;;;;;;;;;;;14.45;100.00;101847.72;5052082;28;20311;-50
2023/08/22 04:10:42;;;;;;;;;;;;;;;14.40;100.00;101843.25;5053253;28;19913;-51
2023/08/22 04:13:07;;;;;;;;;;;;;;;14.37;100.00;101838.84;5052434;28;19913;-49
2023/08/22 04:15:35;;;;;;;;;;;;;;;14.34;100.00;101838.72;5052036;28;19913;-50
2023/08/22 04:18:00;;;;;;;;;;;;;;;14.32;100.00;101835.22;5053150;28;19913;-50
2023/08/22 04:20:26;;;;;;;;;;;;;;;14.31;100.00;101838.66;5052731;28;19934;-51
2023/08/22 04:22:51;;;;;;;;;;;;;;;14.28;100.00;101829.06;5052470;28;19987;-50
2023/08/22 04:25:16;;;;;;;;;;;;;;;14.29;100.00;101824.75;5052913;28;20329;-51
2023/08/22 04:27:42;;;;;;;;;;;;;;;14.26;100.00;101830.72;5053117;28;19960;-50
2023/08/22 04:30:07;;;;;;;;;;;;;;;14.25;100.00;101828.09;5052340;28;19947;-50
2023/08/22 04:32:32;;;;;;;;;;;;;;;14.23;100.00;101832.34;5052600;28;20328;-51
2023/08/22 04:34:58;;;;;;;;;;;;;;;14.24;100.00;101841.88;5052899;28;19919;-46
2023/08/22 04:37:23;;;;;;;;;;;;;;;14.25;100.00;101838.47;5052158;28;19912;-45
2023/08/22 04:39:48;;;;;;;;;;;;;;;14.25;100.00;101835.88;5053318;28;19912;-49
2023/08/22 04:42:13;;;;;;;;;;;;;;;14.24;100.00;101841.88;5052032;28;19916;-48
2023/08/22 04:44:39;;;;;;;;;;;;;;;14.17;100.00;101835.63;5053065;28;19913;-50
2023/08/22 04:47:04;;;;;;;;;;;;;;;14.10;100.00;101838.84;5052822;28;20269;-46
2023/08/22 04:49:29;;;;;;;;;;;;;;;14.05;100.00;101840.47;5051870;28;19920;-45
2023/08/22 04:51:54;;;;;;;;;;;;;;;14.03;100.00;101842.09;5053085;28;19913;-51
2023/08/22 04:54:19;;;;;;;;;;;;;;;14.02;100.00;101846.44;5052690;28;19913;-46
2023/08/22 04:56:45;;;;;;;;;;;;;;;13.99;100.00;101842.03;5052210;28;19920;-46
2023/08/22 04:59:10;;;;;;;;;;;;;;;14.01;100.00;101842.06;5052980;28;19909;-50
2023/08/22 05:01:35;;;;;;;;;;;;;;;14.00;100.00;101842.91;5052426;28;19912;-50
2023/08/22 05:04:00;;;;;;;;;;;;;;;14.02;100.00;101838.66;5052004;28;19936;-46
2023/08/22 05:06:25;;;;;;;;;;;;;;;14.04;100.00;101839.56;5052282;28;20380;-46
2023/08/22 05:08:51;;;;;;;;;;;;;;;14.05;100.00;101838.72;5052903;28;20272;-51
2023/08/22 05:11:16;;;;;;;;;;;;;;;14.06;100.00;101842.19;5051580;28;20315;-48
2023/08/22 05:13:41;;;;;;;;;;;;;;;14.06;100.00;101840.50;5052521;28;20360;-50
2023/08/22 05:16:06;;;;;;;;;;;;;;;14.08;100.00;101837.94;5052541;28;19912;-51
2023/08/22 05:18:32;;;;;;;;;;;;;;;14.10;100.00;101844.03;5051743;28;19912;-48
2023/08/22 05:20:57;;;;;;;;;;;;;;;14.12;100.00;101839.78;5052534;28;19950;-46
2023/08/22 05:23:22;;;;;;;;;;;;;;;14.16;100.00;101842.53;5052417;28;19912;-48
2023/08/22 05:25:47;;;;;;;;;;;;;;;14.19;100.00;101843.44;5054010;28;19923;-49
2023/08/22 05:28:12;;;;;;;;;;;;;;;14.23;100.00;101840.13;5056069;28;19967;-51
2023/08/22 05:30:38;;;;;;;;;;;;;;;14.27;100.00;101844.59;5056169;28;19991;-50
2023/08/22 05:33:04;;;;;;;;;;;;;;;14.31;100.00;101838.66;5055284;28;20011;-46
2023/08/22 05:35:29;;;;;;;;;;;;;;;14.37;100.00;101838.84;5055728;28;19955;-48
2023/08/22 05:37:54;;;;;;;;;;;;;;;14.44;100.00;101835.56;5055955;28;19917;-50
2023/08/22 05:40:19;;;;;;;;;;;;;;;14.49;100.00;101827.94;5054813;28;19912;-46
2023/08/22 05:42:44;;;;;;;;;;;;;;;14.58;100.00;101837.72;5056004;28;19927;-50
2023/08/22 05:45:10;;;;;;;;;;;;;;;14.64;100.00;101837.91;5055862;28;20418;-49
2023/08/22 05:47:35;;;;;;;;;;;;;;;14.69;100.00;101846.69;5054871;28;20372;-47
2023/08/22 05:50:00;;;;;;;;;;;;;;;14.78;100.00;101849.56;5055763;28;19982;-51
2023/08/22 05:52:25;;;;;;;;;;;;;;;14.85;100.00;101858.41;5055670;28;20268;-46
2023/08/22 05:54:50;;;;;;;;;;;;;;;14.92;100.00;101860.31;5055045;28;19918;-48
2023/08/22 05:57:16;;;;;;;;;;;;;;;15.01;100.00;101848.44;5055769;28;20271;-46
2023/08/22 05:59:41;;;;;;;;;;;;;;;15.09;100.00;101853.03;5054891;28;20264;-51
2023/08/22 06:02:06;;;;;;;;;;;;;;;15.16;100.00;101851.47;5055452;28;19913;-51
2023/08/22 06:04:31;;;;;;;;;;;;;;;15.23;100.00;101853.38;5055268;28;20363;-50
2023/08/22 06:06:57;;;;;;;;;;;;;;;15.32;100.00;101857.94;5054890;28;20418;-50
2023/08/22 06:09:22;;;;;;;;;;;;;;;15.41;100.00;101865.97;5055314;28;20340;-49
2023/08/22 06:11:47;;;;;;;;;;;;;;;15.51;100.00;101866.22;5055688;28;19913;-48
2023/08/22 06:14:12;;;;;;;;;;;;;;;15.62;100.00;101872.53;5054384;28;19958;-47
2023/08/22 06:16:37;;;;;;;;;;;;;;;15.73;100.00;101867.63;5055339;28;19939;-50
2023/08/22 06:19:03;;;;;;;;;;;;;;;15.84;100.00;101862.72;5055123;28;19912;-49
2023/08/22 06:21:28;;;;;;;;;;;;;;;15.95;100.00;101872.53;5054108;28;20398;-50
2023/08/22 06:23:53;;;;;;;;;;;;;;;16.07;100.00;101864.13;5055371;28;19909;-50
2023/08/22 06:26:19;;;;;;;;;;;;;;;16.18;100.00;101866.09;5054771;28;19920;-48
2023/08/22 06:28:46;;;;;;;;;;;;;;;16.27;100.00;101871.53;5054382;28;19913;-48
2023/08/22 06:31:11;;;;;;;;;;;;;;;16.38;100.00;101870.03;5054956;28;20283;-49
2023/08/22 06:33:37;;;;;;;;;;;;;;;16.48;100.00;101870.25;5054839;28;19959;-51
2023/08/22 06:36:02;;;;;;;;;;;;;;;16.57;100.00;101871.31;5053739;28;19919;-46
2023/08/22 06:38:27;;;;;;;;;;;;;;;16.67;100.00;101871.50;5054423;28;20314;-45
2023/08/22 06:40:52;;;;;;;;;;;;;;;16.81;100.00;101871.78;5054857;28;19962;-50
2023/08/22 06:43:18;;;;;;;;;;;;;;;16.95;100.00;101866.06;5053596;28;19908;-50
2023/08/22 06:45:43;;;;;;;;;;;;;;;17.10;100.00;101867.19;5054758;28;19912;-51
2023/08/22 06:48:10;;;;;;;;;;;;;;;17.24;100.00;101878.72;5054721;28;20375;-51
2023/08/22 06:50:35;;;;;;;;;;;;;;;17.43;100.00;101887.78;5053599;28;19912;-49
2023/08/22 06:53:00;;;;;;;;;;;;;;;17.60;100.00;101889.81;5054413;28;20268;-45
2023/08/22 06:55:26;;;;;;;;;;;;;;;17.74;100.00;101888.31;5054396;28;19974;-50
2023/08/22 06:57:54;;;;;;;;;;;;;;;17.92;100.00;101886.81;5053704;28;19916;-51
2023/08/22 07:00:19;;;;;;;;;;;;;;;18.09;100.00;101890.63;5054077;28;19919;-50
2023/08/22 07:02:46;;;;;;;;;;;;;;;18.27;100.00;101894.38;5054321;28;19912;-49
2023/08/22 07:05:12;;;;;;;;;;;;;;;18.43;100.00;101896.31;5053359;28;20027;-47
2023/08/22 07:07:37;;;;;;;;;;;;;;;18.62;100.00;101901.81;5054469;28;19990;-50
2023/08/22 07:10:08;;;;;;;;;;;;;;;18.80;100.00;101901.16;5053609;28;19913;-51
2023/08/22 07:12:33;;;;;;;;;;;;;;;19.04;100.00;101900.63;5053861;28;20279;-50
2023/08/22 07:14:58;;;;;;;;;;;;;;;19.22;100.00;101904.28;5054261;28;19913;-49
2023/08/22 07:17:23;;;;;;;;;;;;;;;19.32;100.00;101911.34;5052969;28;20372;-52
2023/08/22 07:19:49;;;;;;;;;;;;;;;19.32;100.00;101906.13;5054177;28;20011;-51
2023/08/22 07:22:14;;;;;;;;;;;;;;;19.36;100.00;101909.66;5053852;28;20329;-49
2023/08/22 07:24:39;;;;;;;;;;;;;;;19.47;100.00;101914.97;5053009;28;20380;-45
2023/08/22 07:27:04;;;;;;;;;;;;;;;19.60;100.00;101906.41;5053740;28;20007;-50
2023/08/22 07:29:29;;;;;;;;;;;;;;;19.75;98.98;101910.88;5053513;28;19970;-50
2023/08/22 07:31:58;;;;;;;;;;;;;;;19.92;96.88;101910.16;5053017;28;19999;-45
2023/08/22 07:34:23;;;;;;;;;;;;;;;20.11;95.06;101905.94;5053605;28;19920;-50
2023/08/22 07:36:49;;;;;;;;;;;;;;;20.28;89.56;101901.69;5053777;28;19912;-49
2023/08/22 07:39:15;;;;;;;;;;;;;;;20.45;93.47;101903.53;5052655;28;19912;-49
2023/08/22 07:41:40;;;;;;;;;;;;;;;20.60;89.55;101903.59;5053802;28;20050;-50
2023/08/22 07:44:05;;;;;;;;;;;;;;;20.78;90.31;101909.84;5053605;28;20015;-51
2023/08/22 07:46:32;;;;;;;;;;;;;;;20.96;90.48;101915.13;5052552;28;19952;-50
2023/08/22 07:48:57;;;;;;;;;;;;;;;21.16;89.76;101909.97;5053295;28;19913;-50
2023/08/22 07:51:22;;;;;;;;;;;;;;;21.35;88.17;101908.25;5053263;28;19936;-46
2023/08/22 07:53:47;;;;;;;;;;;;;;;21.49;90.31;101907.41;5052838;28;19913;-50
2023/08/22 07:56:12;;;;;;;;;;;;;;;21.62;89.45;101917.06;5053340;28;19919;-45
2023/08/22 07:58:38;;;;;;;;;;;;;;;21.74;86.58;101912.69;5053578;28;19947;-45
2023/08/22 08:01:04;;;;;;;;;;;;;;;21.76;85.95;101906.56;5052688;28;19958;-50
2023/08/22 08:03:29;;;;;;;;;;;;;;;21.73;83.13;101910.94;5053255;28;19913;-51
2023/08/22 08:05:54;;;;;;;;;;;;;;;21.68;85.40;101918.81;5053595;28;19913;-50
2023/08/22 08:08:19;;;;;;;;;;;;;;;21.63;86.46;101916.19;5052452;28;20280;-50
2023/08/22 08:10:45;;;;;;;;;;;;;;;21.67;84.59;101923.19;5053270;28;20375;-51
2023/08/22 08:13:10;;;;;;;;;;;;;;;21.77;86.19;101917.94;5052859;28;20359;-50
2023/08/22 08:15:35;;;;;;;;;;;;;;;21.93;86.48;101924.06;5052646;28;20269;-51
2023/08/22 08:18:01;;;;;;;;;;;;;;;22.05;85.69;101924.03;5053110;28;19912;-50
2023/08/22 08:20:26;;;;;;;;;;;;;;;22.17;85.66;101931.06;5052358;28;19913;-49
2023/08/22 08:22:51;;;;;;;;;;;;;;;22.26;83.48;101932.75;5053463;28;20268;-50
2023/08/22 08:25:17;;;;;;;;;;;;;;;22.24;82.83;101932.78;5052941;28;19958;-47
2023/08/22 08:27:42;;;;;;;;;;;;;;;22.16;79.01;101926.66;5052236;28;19960;-50
2023/08/22 08:30:10;;;;;;;;;;;;;;;22.08;80.03;101928.41;5052955;28;20291;-50
2023/08/22 08:32:35;;;;;;;;;;;;;;;22.02;81.92;101934.56;5052759;28;20425;-50
2023/08/22 08:35:00;;;;;;;;;;;;;;;22.01;80.08;101936.31;5052397;28;19959;-49
2023/08/22 08:37:26;;;;;;;;;;;;;;;22.05;81.30;101929.28;5052898;28;19995;-51
2023/08/22 08:39:51;;;;;;;;;;;;;;;22.16;81.97;101931.91;5053042;28;19917;-49
2023/08/22 08:42:16;;;;;;;;;;;;;;;22.28;81.33;101931.88;5051816;28;20347;-47
2023/08/22 08:44:42;;;;;;;;;;;;;;;22.42;83.65;101933.66;5052955;28;19963;-50
2023/08/22 08:47:07;;;;;;;;;;;;;;;22.58;81.59;101938.00;5052885;28;19939;-49
2023/08/22 08:49:34;;;;;;;;;;;;;;;22.73;78.84;101933.56;5052049;28;19913;-49
2023/08/22 08:52:03;;;;;;;;;;;;;;;22.75;79.25;101926.53;5053017;28;19912;-50
2023/08/22 08:54:31;;;;;;;;;;;;;;;22.79;77.43;101933.53;5052609;28;19912;-49
2023/08/22 08:56:56;;;;;;;;;;;;;;;22.80;77.80;101936.16;5051887;28;19920;-49
2023/08/22 08:59:22;;;;;;;;;;;;;;;22.92;79.52;101942.22;5052719;28;19916;-50
2023/08/22 09:01:49;;;;;;;;;;;;;;;23.02;78.87;101947.44;5056604;28;19928;-46
2023/08/22 09:04:15;;;;;;;;;;;;;;;23.01;76.90;101950.94;5055819;28;19915;-51
2023/08/22 09:06:40;;;;;;;;;;;;;;;22.95;76.12;101944.84;5056532;28;19917;-46
2023/08/22 09:09:09;;;;;;;;;;;;;;;22.90;78.35;101931.72;5056685;28;19920;-46
2023/08/22 09:11:34;;;;;;;;;;;;;;;22.85;75.94;101938.75;5055472;28;20405;-51
2023/08/22 09:14:00;;;;;;;;;;;;;;;22.75;75.19;101937.03;5056504;28;20033;-48
2023/08/22 09:16:27;;;;;;;;;;;;;;;22.56;74.48;101942.38;5056083;28;19917;-51
2023/08/22 09:18:57;;;;;;;;;;;;;;;22.41;76.25;101937.16;5056097;28;19916;-50
2023/08/22 09:21:23;;;;;;;;;;;;;;;22.37;77.76;101941.53;5056248;28;19916;-50
2023/08/22 09:23:49;;;;;;;;;;;;;;;22.40;78.77;101945.91;5055706;28;19913;-50
2023/08/22 09:26:19;;;;;;;;;;;;;;;22.46;79.13;101940.66;5055676;28;20253;-50
2023/08/22 09:28:45;;;;;;;;;;;;;;;22.58;79.38;101937.09;5056159;28;20000;-50
2023/08/22 09:31:20;;;;;;;;;;;;;;;22.66;80.50;101936.19;5055652;28;19937;-50
2023/08/22 09:33:45;;;;;;;;;;;;;;;22.73;80.14;101944.06;5056156;28;19917;-51
2023/08/22 09:36:10;;;;;;;;;;;;;;;22.82;79.53;101939.63;5056172;28;19920;-50
2023/08/22 09:38:52;;;;;;;;;;;;;;;23.17;75.88;101940.38;5055117;28;20376;-50
2023/08/22 09:41:24;;;;;;;;;;;;;;;23.48;76.73;101937.56;5055604;28;19913;-50
2023/08/22 09:44:01;;;;;;;;;;;;;;;23.72;74.41;101935.63;5056108;28;19912;-46
2023/08/22 09:46:26;;;;;;;;;;;;;;;23.95;72.12;101925.81;5055045;28;20054;-51
2023/08/22 09:48:52;;;;;;;;;;;;;;;24.08;69.60;101944.13;5055869;28;20379;-51
2023/08/22 09:51:18;;;;;;;;;;;;;;;24.06;68.50;101943.28;5055486;28;19912;-52
2023/08/22 09:53:45;;;;;;;;;;;;;;;24.04;66.92;101945.03;5054771;28;19914;-51
2023/08/22 09:56:11;;;;;;;;;;;;;;;24.07;69.97;101951.16;5055886;28;19916;-51
2023/08/22 09:58:37;;;;;;;;;;;;;;;23.94;64.93;101944.28;5055804;28;19931;-50
2023/08/22 10:01:03;;;;;;;;;;;;;;;23.80;68.07;101946.97;5055078;28;19916;-51
2023/08/22 10:03:29;;;;;;;;;;;;;;;23.62;66.10;101948.88;5055358;28;19909;-52
2023/08/22 10:05:55;;;;;;;;;;;;;;;23.62;66.97;101942.75;5054822;28;19913;-51
2023/08/22 10:08:20;;;;;;;;;;;;;;;23.98;65.46;101944.22;5055109;28;20316;-51
2023/08/22 10:10:47;;;;;;;;;;;;;;;24.45;63.17;101949.03;5055082;28;19915;-51
2023/08/22 10:13:13;;;;;;;;;;;;;;;24.68;60.58;101953.22;5053757;28;20113;-50
2023/08/22 10:15:39;;;;;;;;;;;;;;;24.67;56.09;101952.31;5055382;28;20007;-50
2023/08/22 10:18:05;;;;;;;;;;;;;;;24.55;57.16;101950.66;5055225;28;19919;-51
2023/08/22 10:20:33;;;;;;;;;;;;;;;24.54;55.58;101941.00;5054342;28;19913;-51
2023/08/22 10:22:58;;;;;;;;;;;;;;;24.53;57.95;101941.03;5055178;28;19912;-51
2023/08/22 10:25:43;;;;;;;;;;;;;;;24.53;58.86;101939.28;5055019;28;19912;-51
2023/08/22 10:28:08;;;;;;;;;;;;;;;24.76;59.91;101935.53;5054867;28;20022;-51
2023/08/22 10:30:33;;;;;;;;;;;;;;;25.05;58.93;101936.91;5054567;28;20015;-51
2023/08/22 10:33:05;;;;;;;;;;;;;;;25.13;56.48;101942.97;5055108;28;19917;-50
2023/08/22 10:35:30;;;;;;;;;;;;;;;25.51;56.40;101938.91;5053861;28;20015;-50
2023/08/22 10:37:56;;;;;;;;;;;;;;;25.96;55.76;101933.78;5055333;28;20342;-52
2023/08/22 10:40:24;;;;;;;;;;;;;;;26.34;53.89;101934.00;5054874;28;19913;-51
2023/08/22 10:43:03;;;;;;;;;;;;;;;26.80;50.63;101929.56;5054263;28;19919;-50
2023/08/22 10:45:35;;;;;;;;;;;;;;;27.25;52.25;101933.88;5054625;28;19913;-51
2023/08/22 10:48:11;;;;;;;;;;;;;;;27.54;47.80;101930.56;5053951;28;19912;-51
2023/08/22 10:50:39;;;;;;;;;;;;;;;27.79;49.62;101935.25;5054919;28;20387;-52
2023/08/22 10:53:11;;;;;;;;;;;;;;;27.64;45.83;101931.19;5054513;28;19917;-51
2023/08/22 10:55:37;;;;;;;;;;;;;;;27.50;46.20;101926.25;5053819;28;19912;-51
2023/08/22 10:58:02;;;;;;;;;;;;;;;27.47;44.23;101930.75;5054650;28;19962;-50
2023/08/22 11:00:28;;;;;;;;;;;;;;;27.38;43.93;101926.50;5054332;28;19960;-52
2023/08/22 11:02:57;;;;;;;;;;;;;;;27.35;45.76;101930.09;5054039;28;19951;-50
2023/08/22 11:05:23;;;;;;;;;;;;;;;27.47;47.72;101923.66;5054186;28;20359;-52
2023/08/22 11:07:49;;;;;;;;;;;;;;;27.82;43.09;101929.00;5054412;28;19916;-51
2023/08/22 11:10:16;;;;;;;;;;;;;;;28.10;43.71;101931.81;5053330;28;20303;-51
2023/08/22 11:12:43;;;;;;;;;;;;;;;28.01;43.46;101929.41;5054234;28;19912;-51
2023/08/22 11:15:10;;;;;;;;;;;;;;;27.73;44.56;101930.09;5054150;28;19912;-51
2023/08/22 11:17:39;;;;;;;;;;;;;;;27.47;46.48;101933.41;5053338;28;19920;-50
2023/08/22 11:20:05;;;;;;;;;;;;;;;27.35;42.73;101939.84;5054138;28;19913;-47
2023/08/22 11:22:31;;;;;;;;;;;;;;;27.09;41.54;101941.31;5053629;28;19912;-50
2023/08/22 11:24:56;;;;;;;;;;;;;;;26.97;41.71;101938.91;5053507;28;20009;-50
2023/08/22 11:27:22;;;;;;;;;;;;;;;26.81;42.87;101943.69;5053489;28;19928;-49
2023/08/22 11:29:52;;;;;;;;;;;;;;;26.73;42.62;101947.34;5053840;28;19913;-51
2023/08/22 11:32:23;;;;;;;;;;;;;;;26.62;41.05;101938.72;5052940;28;19913;-51
2023/08/22 11:34:52;;;;;;;;;;;;;;;26.42;43.71;101941.78;5053760;28;20411;-47
2023/08/22 11:37:17;;;;;;;;;;;;;;;26.19;41.72;101951.00;5052874;28;20035;-50
2023/08/22 11:39:47;;;;;;;;;;;;;;;26.10;44.48;101951.16;5053710;28;20431;-48
2023/08/22 11:42:13;;;;;;;;;;;;;;;26.00;42.66;101939.84;5053243;28;19913;-51
2023/08/22 11:44:52;;;;;;;;;;;;;;;25.88;44.40;101948.00;5053196;28;20003;-51
2023/08/22 11:47:17;;;;;;;;;;;;;;;25.77;43.51;101945.53;5053580;28;19916;-47
2023/08/22 11:49:42;;;;;;;;;;;;;;;25.60;46.04;101944.06;5053652;28;20425;-47
2023/08/22 11:52:07;;;;;;;;;;;;;;;25.51;46.08;101946.81;5052841;28;20019;-51
2023/08/22 11:54:33;;;;;;;;;;;;;;;25.38;45.28;101946.13;5053190;28;19923;-50
2023/08/22 11:56:59;;;;;;;;;;;;;;;25.16;45.15;101942.91;5053309;28;19912;-47
2023/08/22 11:59:24;;;;;;;;;;;;;;;24.99;45.76;101941.38;5052592;28;19948;-50
2023/08/22 12:01:49;;;;;;;;;;;;;;;24.94;46.32;101940.53;5053438;28;19985;-48
2023/08/22 12:04:15;;;;;;;;;;;;;;;24.87;47.23;101935.38;5053159;28;19920;-47
2023/08/22 12:06:41;;;;;;;;;;;;;;;24.81;47.57;101945.09;5052709;28;19912;-51
2023/08/22 12:09:11;;;;;;;;;;;;;;;24.84;48.54;101944.19;5053080;28;19938;-48
2023/08/22 12:11:36;;;;;;;;;;;;;;;24.80;47.63;101947.78;5053472;28;19938;-51
2023/08/22 12:14:01;;;;;;;;;;;;;;;24.74;49.07;101947.84;5052663;28;19912;-51
2023/08/22 12:16:27;;;;;;;;;;;;;;;24.79;48.88;101948.66;5053046;28;19917;-47
2023/08/22 12:18:52;;;;;;;;;;;;;;;24.84;49.39;101954.75;5053328;28;19919;-52
2023/08/22 12:21:17;;;;;;;;;;;;;;;24.84;49.17;101949.47;5052123;28;19958;-50
2023/08/22 12:23:42;;;;;;;;;;;;;;;24.77;48.99;101943.41;5053122;28;20295;-51